sensor_id;sensor_type;location;lat;lon;timestamp;P1;durP1;ratioP1;P2;durP2;ratioP2
71513;SDS011;59335;46.652;21.272;2023-12-22T00:02:45;6.75;;;4.10;;
71513;SDS011;59335;46.652;21.272;2023-12-22T00:05:47;6.60;;;3.92;;
71513;SDS011;59335;46.652;21.272;2023-12-22T00:08:50;7.72;;;4.22;;
71513;SDS011;59335;46.652;21.272;2023-12-22T00:11:53;9.00;;;4.50;;
71513;SDS011;59335;46.652;21.272;2023-12-22T00:14:55;6.72;;;4.07;;
71513;SDS011;59335;46.652;21.272;2023-12-22T00:17:58;7.25;;;4.32;;
71513;SDS011;59335;46.652;21.272;2023-12-22T00:21:01;8.00;;;4.00;;
71513;SDS011;59335;46.652;21.272;2023-12-22T00:24:05;7.38;;;4.45;;
71513;SDS011;59335;46.652;21.272;2023-12-22T00:27:08;7.40;;;4.10;;
71513;SDS011;59335;46.652;21.272;2023-12-22T00:30:11;6.93;;;4.10;;
71513;SDS011;59335;46.652;21.272;2023-12-22T00:33:14;9.20;;;4.20;;
71513;SDS011;59335;46.652;21.272;2023-12-22T00:36:18;7.28;;;3.90;;
71513;SDS011;59335;46.652;21.272;2023-12-22T00:39:25;7.32;;;3.83;;
71513;SDS011;59335;46.652;21.272;2023-12-22T00:42:27;7.07;;;4.07;;
71513;SDS011;59335;46.652;21.272;2023-12-22T00:45:30;7.03;;;3.97;;
71513;SDS011;59335;46.652;21.272;2023-12-22T00:48:34;6.88;;;3.70;;
71513;SDS011;59335;46.652;21.272;2023-12-22T00:51:37;8.63;;;4.55;;
71513;SDS011;59335;46.652;21.272;2023-12-22T00:54:40;6.28;;;4.00;;
71513;SDS011;59335;46.652;21.272;2023-12-22T00:57:43;7.10;;;4.50;;
71513;SDS011;59335;46.652;21.272;2023-12-22T01:00:46;7.70;;;4.10;;
71513;SDS011;59335;46.652;21.272;2023-12-22T01:03:49;6.65;;;3.90;;
71513;SDS011;59335;46.652;21.272;2023-12-22T01:06:51;6.40;;;3.85;;
71513;SDS011;59335;46.652;21.272;2023-12-22T01:09:55;6.70;;;3.97;;
71513;SDS011;59335;46.652;21.272;2023-12-22T01:12:58;7.07;;;3.80;;
71513;SDS011;59335;46.652;21.272;2023-12-22T01:16:02;6.95;;;3.88;;
71513;SDS011;59335;46.652;21.272;2023-12-22T01:19:05;7.20;;;3.95;;
71513;SDS011;59335;46.652;21.272;2023-12-22T01:22:09;6.35;;;3.63;;
71513;SDS011;59335;46.652;21.272;2023-12-22T01:25:12;8.13;;;3.90;;
71513;SDS011;59335;46.652;21.272;2023-12-22T01:28:15;7.50;;;3.80;;
71513;SDS011;59335;46.652;21.272;2023-12-22T01:31:18;7.13;;;3.85;;
71513;SDS011;59335;46.652;21.272;2023-12-22T01:34:22;6.53;;;3.70;;
71513;SDS011;59335;46.652;21.272;2023-12-22T01:37:25;7.10;;;3.80;;
71513;SDS011;59335;46.652;21.272;2023-12-22T01:40:28;6.70;;;4.20;;
71513;SDS011;59335;46.652;21.272;2023-12-22T01:43:32;6.33;;;3.77;;
71513;SDS011;59335;46.652;21.272;2023-12-22T01:46:35;6.63;;;3.95;;
71513;SDS011;59335;46.652;21.272;2023-12-22T01:49:39;7.43;;;4.15;;
71513;SDS011;59335;46.652;21.272;2023-12-22T01:52:43;7.55;;;4.03;;
71513;SDS011;59335;46.652;21.272;2023-12-22T01:55:47;6.60;;;3.53;;
71513;SDS011;59335;46.652;21.272;2023-12-22T01:58:53;6.53;;;3.63;;
71513;SDS011;59335;46.652;21.272;2023-12-22T02:02:01;6.32;;;4.00;;
71513;SDS011;59335;46.652;21.272;2023-12-22T02:05:05;7.20;;;3.80;;
71513;SDS011;59335;46.652;21.272;2023-12-22T02:08:12;6.28;;;3.90;;
71513;SDS011;59335;46.652;21.272;2023-12-22T02:11:15;7.25;;;3.72;;
71513;SDS011;59335;46.652;21.272;2023-12-22T02:14:19;6.93;;;4.00;;
71513;SDS011;59335;46.652;21.272;2023-12-22T02:17:26;7.40;;;4.22;;
71513;SDS011;59335;46.652;21.272;2023-12-22T02:20:35;6.72;;;3.63;;
71513;SDS011;59335;46.652;21.272;2023-12-22T02:23:38;6.28;;;3.58;;
71513;SDS011;59335;46.652;21.272;2023-12-22T02:26:42;7.00;;;4.07;;
71513;SDS011;59335;46.652;21.272;2023-12-22T02:29:48;6.60;;;3.70;;
71513;SDS011;59335;46.652;21.272;2023-12-22T02:32:59;6.95;;;3.80;;
71513;SDS011;59335;46.652;21.272;2023-12-22T02:36:04;6.85;;;3.83;;
71513;SDS011;59335;46.652;21.272;2023-12-22T02:39:11;7.50;;;4.20;;
71513;SDS011;59335;46.652;21.272;2023-12-22T02:42:15;6.22;;;3.70;;
71513;SDS011;59335;46.652;21.272;2023-12-22T02:45:20;7.93;;;3.80;;
71513;SDS011;59335;46.652;21.272;2023-12-22T02:48:23;7.20;;;4.03;;
71513;SDS011;59335;46.652;21.272;2023-12-22T02:51:28;6.55;;;3.80;;
71513;SDS011;59335;46.652;21.272;2023-12-22T02:54:31;6.85;;;3.58;;
71513;SDS011;59335;46.652;21.272;2023-12-22T02:57:35;6.45;;;3.40;;
71513;SDS011;59335;46.652;21.272;2023-12-22T03:00:38;6.20;;;3.53;;
71513;SDS011;59335;46.652;21.272;2023-12-22T03:03:42;7.35;;;3.75;;
71513;SDS011;59335;46.652;21.272;2023-12-22T03:06:45;6.63;;;3.97;;
71513;SDS011;59335;46.652;21.272;2023-12-22T03:09:48;6.22;;;3.67;;
71513;SDS011;59335;46.652;21.272;2023-12-22T03:12:51;6.07;;;3.50;;
71513;SDS011;59335;46.652;21.272;2023-12-22T03:15:53;6.80;;;3.80;;
71513;SDS011;59335;46.652;21.272;2023-12-22T03:18:56;6.90;;;3.50;;
71513;SDS011;59335;46.652;21.272;2023-12-22T03:21:59;7.72;;;3.88;;
71513;SDS011;59335;46.652;21.272;2023-12-22T03:25:02;6.35;;;3.53;;
71513;SDS011;59335;46.652;21.272;2023-12-22T03:28:05;6.53;;;3.70;;
71513;SDS011;59335;46.652;21.272;2023-12-22T03:31:08;8.77;;;4.00;;
71513;SDS011;59335;46.652;21.272;2023-12-22T03:34:11;6.63;;;3.70;;
71513;SDS011;59335;46.652;21.272;2023-12-22T03:37:14;6.18;;;3.78;;
71513;SDS011;59335;46.652;21.272;2023-12-22T03:40:17;6.30;;;3.80;;
71513;SDS011;59335;46.652;21.272;2023-12-22T03:43:20;6.70;;;3.53;;
71513;SDS011;59335;46.652;21.272;2023-12-22T03:46:23;6.20;;;3.47;;
71513;SDS011;59335;46.652;21.272;2023-12-22T03:49:27;6.55;;;3.53;;
71513;SDS011;59335;46.652;21.272;2023-12-22T03:52:30;7.22;;;3.53;;
71513;SDS011;59335;46.652;21.272;2023-12-22T03:55:34;6.97;;;3.92;;
71513;SDS011;59335;46.652;21.272;2023-12-22T03:58:37;6.03;;;3.53;;
71513;SDS011;59335;46.652;21.272;2023-12-22T04:01:40;6.07;;;3.57;;
71513;SDS011;59335;46.652;21.272;2023-12-22T04:04:43;6.68;;;3.38;;
71513;SDS011;59335;46.652;21.272;2023-12-22T04:07:47;7.05;;;3.55;;
71513;SDS011;59335;46.652;21.272;2023-12-22T04:10:50;5.75;;;3.50;;
71513;SDS011;59335;46.652;21.272;2023-12-22T04:13:53;6.30;;;3.88;;
71513;SDS011;59335;46.652;21.272;2023-12-22T04:16:56;6.10;;;3.70;;
71513;SDS011;59335;46.652;21.272;2023-12-22T04:19:59;6.85;;;3.83;;
71513;SDS011;59335;46.652;21.272;2023-12-22T04:23:02;6.30;;;3.63;;
71513;SDS011;59335;46.652;21.272;2023-12-22T04:26:05;6.10;;;3.40;;
71513;SDS011;59335;46.652;21.272;2023-12-22T04:29:08;6.95;;;3.65;;
71513;SDS011;59335;46.652;21.272;2023-12-22T04:32:11;6.10;;;3.30;;
71513;SDS011;59335;46.652;21.272;2023-12-22T04:35:14;6.30;;;3.80;;
71513;SDS011;59335;46.652;21.272;2023-12-22T04:38:17;6.85;;;3.58;;
71513;SDS011;59335;46.652;21.272;2023-12-22T04:41:20;6.28;;;3.60;;
71513;SDS011;59335;46.652;21.272;2023-12-22T04:44:22;7.07;;;3.47;;
71513;SDS011;59335;46.652;21.272;2023-12-22T04:47:25;6.87;;;3.80;;
71513;SDS011;59335;46.652;21.272;2023-12-22T04:50:28;6.22;;;3.40;;
71513;SDS011;59335;46.652;21.272;2023-12-22T04:53:31;6.00;;;3.42;;
71513;SDS011;59335;46.652;21.272;2023-12-22T04:56:34;5.88;;;3.28;;
71513;SDS011;59335;46.652;21.272;2023-12-22T04:59:37;6.45;;;3.50;;
71513;SDS011;59335;46.652;21.272;2023-12-22T05:02:39;6.20;;;3.30;;
71513;SDS011;59335;46.652;21.272;2023-12-22T05:05:43;6.70;;;3.60;;
71513;SDS011;59335;46.652;21.272;2023-12-22T05:08:46;5.80;;;3.13;;
71513;SDS011;59335;46.652;21.272;2023-12-22T05:11:49;6.07;;;3.15;;
71513;SDS011;59335;46.652;21.272;2023-12-22T05:14:52;6.93;;;3.15;;
71513;SDS011;59335;46.652;21.272;2023-12-22T05:17:55;6.07;;;3.63;;
71513;SDS011;59335;46.652;21.272;2023-12-22T05:20:57;6.35;;;3.60;;
71513;SDS011;59335;46.652;21.272;2023-12-22T05:24:00;6.90;;;3.28;;
71513;SDS011;59335;46.652;21.272;2023-12-22T05:27:03;6.82;;;3.55;;
71513;SDS011;59335;46.652;21.272;2023-12-22T05:30:07;6.03;;;3.53;;
71513;SDS011;59335;46.652;21.272;2023-12-22T05:33:11;6.00;;;3.53;;
71513;SDS011;59335;46.652;21.272;2023-12-22T05:36:13;6.57;;;3.22;;
71513;SDS011;59335;46.652;21.272;2023-12-22T05:39:16;6.55;;;3.60;;
71513;SDS011;59335;46.652;21.272;2023-12-22T05:42:19;6.57;;;3.53;;
71513;SDS011;59335;46.652;21.272;2023-12-22T05:45:22;6.38;;;3.50;;
71513;SDS011;59335;46.652;21.272;2023-12-22T05:48:29;6.37;;;3.30;;
71513;SDS011;59335;46.652;21.272;2023-12-22T05:51:38;6.32;;;3.45;;
71513;SDS011;59335;46.652;21.272;2023-12-22T05:54:42;7.30;;;3.70;;
71513;SDS011;59335;46.652;21.272;2023-12-22T05:57:45;6.28;;;3.60;;
71513;SDS011;59335;46.652;21.272;2023-12-22T06:00:48;6.22;;;3.55;;
71513;SDS011;59335;46.652;21.272;2023-12-22T06:03:51;7.23;;;3.67;;
71513;SDS011;59335;46.652;21.272;2023-12-22T06:06:54;6.10;;;3.38;;
71513;SDS011;59335;46.652;21.272;2023-12-22T06:09:57;5.57;;;2.97;;
71513;SDS011;59335;46.652;21.272;2023-12-22T06:13:00;6.60;;;3.40;;
71513;SDS011;59335;46.652;21.272;2023-12-22T06:16:06;5.47;;;3.10;;
71513;SDS011;59335;46.652;21.272;2023-12-22T06:19:08;6.67;;;3.87;;
71513;SDS011;59335;46.652;21.272;2023-12-22T06:22:12;6.43;;;3.38;;
71513;SDS011;59335;46.652;21.272;2023-12-22T06:25:15;5.72;;;3.00;;
71513;SDS011;59335;46.652;21.272;2023-12-22T06:28:18;6.22;;;3.30;;
71513;SDS011;59335;46.652;21.272;2023-12-22T06:31:21;6.10;;;3.35;;
71513;SDS011;59335;46.652;21.272;2023-12-22T06:34:25;6.03;;;3.00;;
71513;SDS011;59335;46.652;21.272;2023-12-22T06:37:28;6.40;;;3.25;;
71513;SDS011;59335;46.652;21.272;2023-12-22T06:40:31;5.90;;;3.13;;
71513;SDS011;59335;46.652;21.272;2023-12-22T06:43:33;6.70;;;3.20;;
71513;SDS011;59335;46.652;21.272;2023-12-22T06:46:36;5.65;;;2.90;;
71513;SDS011;59335;46.652;21.272;2023-12-22T06:49:39;6.20;;;3.70;;
71513;SDS011;59335;46.652;21.272;2023-12-22T06:52:42;5.60;;;3.25;;
71513;SDS011;59335;46.652;21.272;2023-12-22T06:55:45;6.18;;;3.33;;
71513;SDS011;59335;46.652;21.272;2023-12-22T06:58:48;5.75;;;3.30;;
71513;SDS011;59335;46.652;21.272;2023-12-22T07:01:52;7.35;;;3.10;;
71513;SDS011;59335;46.652;21.272;2023-12-22T07:08:23;5.88;;;3.10;;
71513;SDS011;59335;46.652;21.272;2023-12-22T07:11:26;5.40;;;3.13;;
71513;SDS011;59335;46.652;21.272;2023-12-22T07:14:39;5.75;;;3.05;;
71513;SDS011;59335;46.652;21.272;2023-12-22T07:17:43;5.93;;;3.38;;
71513;SDS011;59335;46.652;21.272;2023-12-22T07:20:46;5.53;;;3.03;;
71513;SDS011;59335;46.652;21.272;2023-12-22T07:23:49;5.50;;;3.08;;
71513;SDS011;59335;46.652;21.272;2023-12-22T07:26:52;5.78;;;3.10;;
71513;SDS011;59335;46.652;21.272;2023-12-22T07:29:56;5.65;;;3.00;;
71513;SDS011;59335;46.652;21.272;2023-12-22T07:32:58;5.20;;;2.95;;
71513;SDS011;59335;46.652;21.272;2023-12-22T07:36:02;5.87;;;3.07;;
71513;SDS011;59335;46.652;21.272;2023-12-22T07:39:06;5.95;;;3.00;;
71513;SDS011;59335;46.652;21.272;2023-12-22T07:42:09;5.80;;;3.15;;
71513;SDS011;59335;46.652;21.272;2023-12-22T07:45:11;6.25;;;3.05;;
71513;SDS011;59335;46.652;21.272;2023-12-22T07:48:16;5.75;;;3.20;;
71513;SDS011;59335;46.652;21.272;2023-12-22T07:51:19;5.17;;;2.80;;
71513;SDS011;59335;46.652;21.272;2023-12-22T07:54:23;5.68;;;3.13;;
71513;SDS011;59335;46.652;21.272;2023-12-22T07:57:26;5.32;;;3.13;;
71513;SDS011;59335;46.652;21.272;2023-12-22T08:00:29;5.03;;;2.70;;
71513;SDS011;59335;46.652;21.272;2023-12-22T08:03:32;5.88;;;2.75;;
71513;SDS011;59335;46.652;21.272;2023-12-22T08:06:35;5.27;;;3.00;;
71513;SDS011;59335;46.652;21.272;2023-12-22T08:09:38;5.95;;;2.97;;
71513;SDS011;59335;46.652;21.272;2023-12-22T08:12:41;5.50;;;3.00;;
71513;SDS011;59335;46.652;21.272;2023-12-22T08:15:44;6.35;;;2.97;;
71513;SDS011;59335;46.652;21.272;2023-12-22T08:18:47;5.30;;;2.70;;
71513;SDS011;59335;46.652;21.272;2023-12-22T08:21:51;5.73;;;3.03;;
71513;SDS011;59335;46.652;21.272;2023-12-22T08:24:55;5.35;;;3.00;;
71513;SDS011;59335;46.652;21.272;2023-12-22T08:27:58;6.32;;;3.42;;
71513;SDS011;59335;46.652;21.272;2023-12-22T08:31:01;5.25;;;2.70;;
71513;SDS011;59335;46.652;21.272;2023-12-22T08:34:05;5.90;;;3.20;;
71513;SDS011;59335;46.652;21.272;2023-12-22T08:37:07;5.73;;;2.90;;
71513;SDS011;59335;46.652;21.272;2023-12-22T08:40:10;5.75;;;2.97;;
71513;SDS011;59335;46.652;21.272;2023-12-22T08:43:14;5.03;;;2.60;;
71513;SDS011;59335;46.652;21.272;2023-12-22T08:46:17;5.13;;;2.80;;
71513;SDS011;59335;46.652;21.272;2023-12-22T08:49:20;5.10;;;2.75;;
71513;SDS011;59335;46.652;21.272;2023-12-22T08:52:24;5.47;;;3.00;;
71513;SDS011;59335;46.652;21.272;2023-12-22T08:55:27;5.10;;;2.85;;
71513;SDS011;59335;46.652;21.272;2023-12-22T08:58:30;5.43;;;3.00;;
71513;SDS011;59335;46.652;21.272;2023-12-22T09:01:33;5.93;;;3.00;;
71513;SDS011;59335;46.652;21.272;2023-12-22T09:04:37;5.47;;;3.00;;
71513;SDS011;59335;46.652;21.272;2023-12-22T09:07:41;5.40;;;3.00;;
71513;SDS011;59335;46.652;21.272;2023-12-22T09:10:44;5.40;;;2.75;;
71513;SDS011;59335;46.652;21.272;2023-12-22T09:13:47;4.82;;;2.65;;
71513;SDS011;59335;46.652;21.272;2023-12-22T09:16:50;6.75;;;2.97;;
71513;SDS011;59335;46.652;21.272;2023-12-22T09:19:53;5.63;;;3.20;;
71513;SDS011;59335;46.652;21.272;2023-12-22T09:22:57;5.60;;;3.00;;
71513;SDS011;59335;46.652;21.272;2023-12-22T09:26:00;5.28;;;2.65;;
71513;SDS011;59335;46.652;21.272;2023-12-22T09:29:03;5.18;;;2.58;;
71513;SDS011;59335;46.652;21.272;2023-12-22T09:32:07;5.65;;;2.90;;
71513;SDS011;59335;46.652;21.272;2023-12-22T09:35:10;6.40;;;2.97;;
71513;SDS011;59335;46.652;21.272;2023-12-22T09:38:13;5.17;;;2.80;;
71513;SDS011;59335;46.652;21.272;2023-12-22T09:41:16;5.38;;;2.80;;
71513;SDS011;59335;46.652;21.272;2023-12-22T09:44:20;5.10;;;2.55;;
71513;SDS011;59335;46.652;21.272;2023-12-22T09:47:23;4.90;;;2.88;;
71513;SDS011;59335;46.652;21.272;2023-12-22T09:50:28;5.05;;;2.75;;
71513;SDS011;59335;46.652;21.272;2023-12-22T09:53:31;5.53;;;2.90;;
71513;SDS011;59335;46.652;21.272;2023-12-22T09:56:37;5.88;;;2.78;;
71513;SDS011;59335;46.652;21.272;2023-12-22T09:59:45;5.13;;;2.60;;
71513;SDS011;59335;46.652;21.272;2023-12-22T10:02:51;5.25;;;2.78;;
71513;SDS011;59335;46.652;21.272;2023-12-22T10:05:54;5.53;;;2.88;;
71513;SDS011;59335;46.652;21.272;2023-12-22T10:08:57;5.30;;;2.50;;
71513;SDS011;59335;46.652;21.272;2023-12-22T10:12:01;5.30;;;2.40;;
71513;SDS011;59335;46.652;21.272;2023-12-22T10:15:07;4.45;;;2.60;;
71513;SDS011;59335;46.652;21.272;2023-12-22T10:18:12;5.32;;;2.72;;
71513;SDS011;59335;46.652;21.272;2023-12-22T10:21:15;4.97;;;2.30;;
71513;SDS011;59335;46.652;21.272;2023-12-22T10:27:41;5.50;;;2.70;;
71513;SDS011;59335;46.652;21.272;2023-12-22T10:30:44;5.75;;;2.78;;
71513;SDS011;59335;46.652;21.272;2023-12-22T10:33:48;4.93;;;2.38;;
71513;SDS011;59335;46.652;21.272;2023-12-22T10:36:50;5.50;;;2.80;;
71513;SDS011;59335;46.652;21.272;2023-12-22T10:39:53;4.80;;;2.50;;
71513;SDS011;59335;46.652;21.272;2023-12-22T10:42:58;5.40;;;2.80;;
71513;SDS011;59335;46.652;21.272;2023-12-22T10:46:01;5.88;;;2.58;;
71513;SDS011;59335;46.652;21.272;2023-12-22T10:49:05;5.93;;;2.70;;
71513;SDS011;59335;46.652;21.272;2023-12-22T10:52:11;4.60;;;2.42;;
71513;SDS011;59335;46.652;21.272;2023-12-22T10:55:19;5.40;;;2.50;;
71513;SDS011;59335;46.652;21.272;2023-12-22T10:58:22;5.10;;;2.38;;
71513;SDS011;59335;46.652;21.272;2023-12-22T11:01:27;4.93;;;2.22;;
71513;SDS011;59335;46.652;21.272;2023-12-22T11:04:32;6.03;;;2.67;;
71513;SDS011;59335;46.652;21.272;2023-12-22T11:07:39;4.97;;;2.40;;
71513;SDS011;59335;46.652;21.272;2023-12-22T11:10:46;5.03;;;2.60;;
71513;SDS011;59335;46.652;21.272;2023-12-22T11:13:56;4.80;;;2.40;;
71513;SDS011;59335;46.652;21.272;2023-12-22T11:16:59;4.88;;;2.40;;
71513;SDS011;59335;46.652;21.272;2023-12-22T11:20:04;5.05;;;2.60;;
71513;SDS011;59335;46.652;21.272;2023-12-22T11:23:07;5.03;;;2.33;;
71513;SDS011;59335;46.652;21.272;2023-12-22T11:26:11;4.57;;;2.40;;
71513;SDS011;59335;46.652;21.272;2023-12-22T11:29:16;4.18;;;2.20;;
71513;SDS011;59335;46.652;21.272;2023-12-22T11:32:22;5.38;;;2.50;;
71513;SDS011;59335;46.652;21.272;2023-12-22T11:35:27;5.22;;;2.35;;
71513;SDS011;59335;46.652;21.272;2023-12-22T11:38:35;4.38;;;2.30;;
71513;SDS011;59335;46.652;21.272;2023-12-22T11:41:38;4.40;;;2.50;;
71513;SDS011;59335;46.652;21.272;2023-12-22T11:44:45;4.97;;;2.53;;
71513;SDS011;59335;46.652;21.272;2023-12-22T11:47:47;4.93;;;2.40;;
71513;SDS011;59335;46.652;21.272;2023-12-22T11:50:51;5.28;;;2.38;;
71513;SDS011;59335;46.652;21.272;2023-12-22T11:53:54;5.07;;;2.50;;
71513;SDS011;59335;46.652;21.272;2023-12-22T11:56:59;4.33;;;2.30;;
71513;SDS011;59335;46.652;21.272;2023-12-22T12:00:08;5.05;;;2.30;;
71513;SDS011;59335;46.652;21.272;2023-12-22T12:03:35;5.05;;;2.30;;
71513;SDS011;59335;46.652;21.272;2023-12-22T12:06:40;4.85;;;2.30;;
71513;SDS011;59335;46.652;21.272;2023-12-22T12:09:46;4.47;;;2.33;;
71513;SDS011;59335;46.652;21.272;2023-12-22T12:13:03;5.13;;;2.60;;
71513;SDS011;59335;46.652;21.272;2023-12-22T12:16:07;4.78;;;2.47;;
71513;SDS011;59335;46.652;21.272;2023-12-22T12:19:10;4.22;;;2.00;;
71513;SDS011;59335;46.652;21.272;2023-12-22T12:22:14;5.15;;;2.40;;
71513;SDS011;59335;46.652;21.272;2023-12-22T12:25:17;4.90;;;2.35;;
71513;SDS011;59335;46.652;21.272;2023-12-22T12:28:30;4.50;;;2.40;;
71513;SDS011;59335;46.652;21.272;2023-12-22T12:31:36;5.10;;;2.20;;
71513;SDS011;59335;46.652;21.272;2023-12-22T12:34:44;5.70;;;2.67;;
71513;SDS011;59335;46.652;21.272;2023-12-22T12:37:50;4.05;;;2.13;;
71513;SDS011;59335;46.652;21.272;2023-12-22T12:40:54;4.47;;;2.13;;
71513;SDS011;59335;46.652;21.272;2023-12-22T12:43:59;4.80;;;2.40;;
71513;SDS011;59335;46.652;21.272;2023-12-22T12:47:11;4.65;;;2.20;;
71513;SDS011;59335;46.652;21.272;2023-12-22T12:50:23;5.10;;;2.47;;
71513;SDS011;59335;46.652;21.272;2023-12-22T12:53:27;4.97;;;2.20;;
71513;SDS011;59335;46.652;21.272;2023-12-22T12:56:40;4.68;;;2.03;;
71513;SDS011;59335;46.652;21.272;2023-12-22T12:59:44;5.00;;;2.40;;
71513;SDS011;59335;46.652;21.272;2023-12-22T13:02:51;4.75;;;2.38;;
71513;SDS011;59335;46.652;21.272;2023-12-22T13:06:06;3.90;;;2.00;;
71513;SDS011;59335;46.652;21.272;2023-12-22T13:09:10;4.47;;;2.00;;
71513;SDS011;59335;46.652;21.272;2023-12-22T13:12:13;4.43;;;2.20;;
71513;SDS011;59335;46.652;21.272;2023-12-22T13:15:16;4.77;;;2.13;;
71513;SDS011;59335;46.652;21.272;2023-12-22T13:18:18;4.32;;;2.20;;
71513;SDS011;59335;46.652;21.272;2023-12-22T13:21:22;5.35;;;2.20;;
71513;SDS011;59335;46.652;21.272;2023-12-22T13:24:25;3.95;;;2.13;;
71513;SDS011;59335;46.652;21.272;2023-12-22T13:27:31;5.38;;;2.10;;
71513;SDS011;59335;46.652;21.272;2023-12-22T13:33:36;4.32;;;2.28;;
71513;SDS011;59335;46.652;21.272;2023-12-22T13:36:40;5.03;;;2.10;;
71513;SDS011;59335;46.652;21.272;2023-12-22T13:39:46;5.47;;;2.10;;
71513;SDS011;59335;46.652;21.272;2023-12-22T13:42:56;5.45;;;2.20;;
71513;SDS011;59335;46.652;21.272;2023-12-22T13:46:05;4.23;;;2.00;;
71513;SDS011;59335;46.652;21.272;2023-12-22T13:49:09;3.95;;;2.20;;
71513;SDS011;59335;46.652;21.272;2023-12-22T13:55:36;5.07;;;2.22;;
71513;SDS011;59335;46.652;21.272;2023-12-22T13:58:44;5.28;;;2.10;;
71513;SDS011;59335;46.652;21.272;2023-12-22T14:01:48;4.63;;;2.10;;
71513;SDS011;59335;46.652;21.272;2023-12-22T14:04:51;4.65;;;2.00;;
71513;SDS011;59335;46.652;21.272;2023-12-22T14:07:54;4.85;;;2.17;;
71513;SDS011;59335;46.652;21.272;2023-12-22T14:10:58;5.38;;;2.10;;
71513;SDS011;59335;46.652;21.272;2023-12-22T14:14:01;4.15;;;1.90;;
71513;SDS011;59335;46.652;21.272;2023-12-22T14:17:04;6.23;;;2.33;;
71513;SDS011;59335;46.652;21.272;2023-12-22T14:20:06;4.15;;;1.90;;
71513;SDS011;59335;46.652;21.272;2023-12-22T14:23:13;4.60;;;2.20;;
71513;SDS011;59335;46.652;21.272;2023-12-22T14:26:19;4.65;;;2.05;;
71513;SDS011;59335;46.652;21.272;2023-12-22T14:29:23;4.28;;;2.00;;
71513;SDS011;59335;46.652;21.272;2023-12-22T14:32:25;3.87;;;2.03;;
71513;SDS011;59335;46.652;21.272;2023-12-22T14:35:28;5.38;;;2.13;;
71513;SDS011;59335;46.652;21.272;2023-12-22T14:38:31;4.03;;;1.98;;
71513;SDS011;59335;46.652;21.272;2023-12-22T14:41:34;5.18;;;2.13;;
71513;SDS011;59335;46.652;21.272;2023-12-22T14:44:37;4.15;;;2.05;;
71513;SDS011;59335;46.652;21.272;2023-12-22T14:47:40;3.27;;;1.90;;
71513;SDS011;59335;46.652;21.272;2023-12-22T14:50:43;4.38;;;2.08;;
71513;SDS011;59335;46.652;21.272;2023-12-22T14:53:46;4.05;;;1.90;;
71513;SDS011;59335;46.652;21.272;2023-12-22T14:56:51;3.90;;;1.75;;
71513;SDS011;59335;46.652;21.272;2023-12-22T14:59:54;4.50;;;1.95;;
71513;SDS011;59335;46.652;21.272;2023-12-22T15:02:57;4.30;;;1.87;;
71513;SDS011;59335;46.652;21.272;2023-12-22T15:06:02;4.85;;;2.17;;
71513;SDS011;59335;46.652;21.272;2023-12-22T15:09:05;3.60;;;1.88;;
71513;SDS011;59335;46.652;21.272;2023-12-22T15:12:09;4.13;;;1.95;;
71513;SDS011;59335;46.652;21.272;2023-12-22T15:15:11;4.88;;;1.90;;
71513;SDS011;59335;46.652;21.272;2023-12-22T15:18:14;4.93;;;1.97;;
71513;SDS011;59335;46.652;21.272;2023-12-22T15:21:20;4.15;;;1.90;;
71513;SDS011;59335;46.652;21.272;2023-12-22T15:24:24;4.63;;;2.03;;
71513;SDS011;59335;46.652;21.272;2023-12-22T15:27:29;3.72;;;2.00;;
71513;SDS011;59335;46.652;21.272;2023-12-22T15:30:32;4.40;;;2.00;;
71513;SDS011;59335;46.652;21.272;2023-12-22T15:33:35;4.27;;;1.90;;
71513;SDS011;59335;46.652;21.272;2023-12-22T15:36:38;4.47;;;2.10;;
71513;SDS011;59335;46.652;21.272;2023-12-22T15:39:41;4.25;;;1.80;;
71513;SDS011;59335;46.652;21.272;2023-12-22T15:42:43;4.53;;;2.10;;
71513;SDS011;59335;46.652;21.272;2023-12-22T15:45:46;4.03;;;1.90;;
71513;SDS011;59335;46.652;21.272;2023-12-22T15:48:49;3.87;;;1.70;;
71513;SDS011;59335;46.652;21.272;2023-12-22T15:51:52;3.95;;;2.10;;
71513;SDS011;59335;46.652;21.272;2023-12-22T15:54:58;4.05;;;1.95;;
71513;SDS011;59335;46.652;21.272;2023-12-22T15:58:00;3.72;;;1.67;;
71513;SDS011;59335;46.652;21.272;2023-12-22T16:01:03;3.72;;;2.00;;
71513;SDS011;59335;46.652;21.272;2023-12-22T16:04:07;4.07;;;2.13;;
71513;SDS011;59335;46.652;21.272;2023-12-22T16:07:10;3.88;;;2.00;;
71513;SDS011;59335;46.652;21.272;2023-12-22T16:10:13;4.07;;;1.80;;
71513;SDS011;59335;46.652;21.272;2023-12-22T16:13:16;4.05;;;1.70;;
71513;SDS011;59335;46.652;21.272;2023-12-22T16:16:19;4.93;;;1.98;;
71513;SDS011;59335;46.652;21.272;2023-12-22T16:19:22;5.20;;;2.00;;
71513;SDS011;59335;46.652;21.272;2023-12-22T16:22:25;3.95;;;1.63;;
71513;SDS011;59335;46.652;21.272;2023-12-22T16:25:28;4.10;;;1.90;;
71513;SDS011;59335;46.652;21.272;2023-12-22T16:28:34;3.70;;;1.70;;
71513;SDS011;59335;46.652;21.272;2023-12-22T16:31:38;4.07;;;1.80;;
71513;SDS011;59335;46.652;21.272;2023-12-22T16:34:42;4.97;;;2.20;;
71513;SDS011;59335;46.652;21.272;2023-12-22T16:37:49;5.75;;;1.88;;
71513;SDS011;59335;46.652;21.272;2023-12-22T16:40:52;5.05;;;2.15;;
71513;SDS011;59335;46.652;21.272;2023-12-22T16:43:55;4.10;;;1.83;;
71513;SDS011;59335;46.652;21.272;2023-12-22T16:46:58;3.55;;;1.70;;
71513;SDS011;59335;46.652;21.272;2023-12-22T16:50:00;4.33;;;2.20;;
71513;SDS011;59335;46.652;21.272;2023-12-22T16:53:03;3.53;;;1.80;;
71513;SDS011;59335;46.652;21.272;2023-12-22T16:56:06;4.45;;;1.85;;
71513;SDS011;59335;46.652;21.272;2023-12-22T16:59:09;4.68;;;1.90;;
71513;SDS011;59335;46.652;21.272;2023-12-22T17:02:13;3.25;;;1.80;;
71513;SDS011;59335;46.652;21.272;2023-12-22T17:05:34;3.27;;;1.80;;
71513;SDS011;59335;46.652;21.272;2023-12-22T17:08:37;4.50;;;2.33;;
71513;SDS011;59335;46.652;21.272;2023-12-22T17:11:40;4.82;;;2.03;;
71513;SDS011;59335;46.652;21.272;2023-12-22T17:14:43;4.07;;;1.88;;
71513;SDS011;59335;46.652;21.272;2023-12-22T17:17:45;4.47;;;1.73;;
71513;SDS011;59335;46.652;21.272;2023-12-22T17:20:48;4.23;;;1.73;;
71513;SDS011;59335;46.652;21.272;2023-12-22T17:24:06;3.47;;;1.85;;
71513;SDS011;59335;46.652;21.272;2023-12-22T17:27:09;4.40;;;2.05;;
71513;SDS011;59335;46.652;21.272;2023-12-22T17:30:12;5.07;;;2.00;;
71513;SDS011;59335;46.652;21.272;2023-12-22T17:33:15;4.03;;;1.85;;
71513;SDS011;59335;46.652;21.272;2023-12-22T17:36:18;4.50;;;1.90;;
71513;SDS011;59335;46.652;21.272;2023-12-22T17:39:22;3.67;;;1.90;;
71513;SDS011;59335;46.652;21.272;2023-12-22T17:42:24;4.45;;;2.25;;
71513;SDS011;59335;46.652;21.272;2023-12-22T17:45:27;3.55;;;1.50;;
71513;SDS011;59335;46.652;21.272;2023-12-22T17:48:30;4.30;;;1.80;;
71513;SDS011;59335;46.652;21.272;2023-12-22T17:51:33;4.53;;;1.87;;
71513;SDS011;59335;46.652;21.272;2023-12-22T17:54:38;4.20;;;1.70;;
71513;SDS011;59335;46.652;21.272;2023-12-22T17:57:41;3.90;;;1.73;;
71513;SDS011;59335;46.652;21.272;2023-12-22T18:00:44;5.43;;;1.95;;
71513;SDS011;59335;46.652;21.272;2023-12-22T18:03:50;3.90;;;1.85;;
71513;SDS011;59335;46.652;21.272;2023-12-22T18:06:56;3.57;;;1.50;;
71513;SDS011;59335;46.652;21.272;2023-12-22T18:10:00;4.70;;;1.83;;
71513;SDS011;59335;46.652;21.272;2023-12-22T18:13:03;4.28;;;1.98;;
71513;SDS011;59335;46.652;21.272;2023-12-22T18:16:06;4.45;;;1.85;;
71513;SDS011;59335;46.652;21.272;2023-12-22T18:19:09;4.45;;;1.80;;
71513;SDS011;59335;46.652;21.272;2023-12-22T18:22:12;3.97;;;1.63;;
71513;SDS011;59335;46.652;21.272;2023-12-22T18:25:15;4.68;;;1.90;;